BAW193 EGLL-KDFW
Flight info
| Callsign | BAW193 |
|---|---|
| Flight time | N/A |
| Altitude | 36000 |
| Route | UMLAT T418 WELIN T420 TNT UL28 PENIL DCT DEJEM DCT OZRAT DCT WETFI DCT ASKUP DCT REVNU DCT RESNO/M084F380 NATB LOMSI/N0492F380 N668A TAFFY DCT PQI DCT CABCI/N0489F400 Q29 NIPPY DCT WILET DCT REBBL DCT LEJOY DCT EMNEM Q71 GEFFS DCT TONIO DCT ARTUR DCT NIOLA DCT VLKNN Q30 IZAAC DCT YUYUN BEREE3 |
| Aircraft | A388/J-SDE1E2E3GHIJ3J4J5J6LM1M2OP2RWXYZ/LB1D1 |
Departure
| Time | N/A |
|---|---|
| Airport | London Heathrow Airport (EGLL) |
Arrival
| Time | 2026-05-04 18:03 |
|---|---|
| Airport | Dallas Fort Worth International Airport (KDFW) |
| Time | Latitude | Longitude | Altitude | Speed | Heading |
|---|---|---|---|---|---|
| 2026-05-04 17:36 | 32.26900 | -95.93618 | 29018 ft | 364 kts | 276° |
| 2026-05-04 17:37 | 32.26953 | -95.96154 | 28544 ft | 359 kts | 276° |
| 2026-05-04 17:37 | 32.27016 | -95.99048 | 28003 ft | 355 kts | 276° |
| 2026-05-04 17:37 | 32.27080 | -96.01927 | 27474 ft | 351 kts | 276° |
| 2026-05-04 17:37 | 32.27113 | -96.03462 | 27189 ft | 349 kts | 276° |
| 2026-05-04 17:38 | 32.27174 | -96.06252 | 26678 ft | 346 kts | 276° |
| 2026-05-04 17:38 | 32.27234 | -96.09043 | 26165 ft | 343 kts | 276° |
| 2026-05-04 17:38 | 32.27292 | -96.11805 | 25686 ft | 340 kts | 275° |
| 2026-05-04 17:38 | 32.27348 | -96.14517 | 25217 ft | 338 kts | 275° |
| 2026-05-04 17:39 | 32.27460 | -96.19961 | 24271 ft | 335 kts | 275° |
| 2026-05-04 17:39 | 32.27515 | -96.22646 | 23804 ft | 334 kts | 275° |
| 2026-05-04 17:39 | 32.27569 | -96.25368 | 23282 ft | 333 kts | 274° |
| 2026-05-04 17:40 | 32.27623 | -96.28061 | 22792 ft | 330 kts | 275° |
| 2026-05-04 17:40 | 32.27956 | -96.30658 | 22337 ft | 325 kts | 287° |
| 2026-05-04 17:40 | 32.28786 | -96.33083 | 21881 ft | 324 kts | 298° |
| 2026-05-04 17:40 | 32.30058 | -96.35239 | 21405 ft | 325 kts | 309° |
| 2026-05-04 17:41 | 32.31658 | -96.37092 | 20921 ft | 326 kts | 313° |
| 2026-05-04 17:41 | 32.33266 | -96.38914 | 20451 ft | 325 kts | 313° |
| 2026-05-04 17:41 | 32.34862 | -96.40750 | 19938 ft | 324 kts | 313° |
| 2026-05-04 17:41 | 32.36441 | -96.42573 | 19476 ft | 323 kts | 313° |
| 2026-05-04 17:42 | 32.37966 | -96.44331 | 19015 ft | 322 kts | 313° |
| 2026-05-04 17:42 | 32.39527 | -96.46130 | 18560 ft | 322 kts | 313° |
| 2026-05-04 17:42 | 32.41073 | -96.47909 | 18072 ft | 322 kts | 313° |
| 2026-05-04 17:42 | 32.42635 | -96.49707 | 17590 ft | 320 kts | 313° |
| 2026-05-04 17:43 | 32.44206 | -96.51516 | 17164 ft | 317 kts | 313° |
| 2026-05-04 17:43 | 32.45788 | -96.53339 | 16709 ft | 317 kts | 313° |
| 2026-05-04 17:43 | 32.47307 | -96.55091 | 16421 ft | 315 kts | 313° |
| 2026-05-04 17:43 | 32.48857 | -96.56879 | 16143 ft | 317 kts | 313° |
| 2026-05-04 17:44 | 32.50430 | -96.58688 | 15891 ft | 316 kts | 313° |
| 2026-05-04 17:44 | 32.51982 | -96.60463 | 15582 ft | 316 kts | 313° |
| 2026-05-04 17:44 | 32.53536 | -96.62241 | 15213 ft | 314 kts | 313° |
| 2026-05-04 17:44 | 32.55076 | -96.64003 | 14819 ft | 311 kts | 313° |
| 2026-05-04 17:45 | 32.56606 | -96.65756 | 14432 ft | 308 kts | 313° |
| 2026-05-04 17:45 | 32.58133 | -96.67496 | 14052 ft | 305 kts | 314° |
| 2026-05-04 17:45 | 32.59603 | -96.69149 | 13668 ft | 303 kts | 314° |
| 2026-05-04 17:45 | 32.61121 | -96.70853 | 13355 ft | 297 kts | 314° |
| 2026-05-04 17:46 | 32.65212 | -96.75453 | 12876 ft | 273 kts | 313° |
| 2026-05-04 17:46 | 32.66582 | -96.77003 | 12766 ft | 272 kts | 313° |
| 2026-05-04 17:47 | 32.67917 | -96.78518 | 12711 ft | 272 kts | 313° |
| 2026-05-04 17:47 | 32.69272 | -96.80059 | 12661 ft | 273 kts | 313° |
| 2026-05-04 17:47 | 32.70632 | -96.81603 | 12612 ft | 272 kts | 313° |
| 2026-05-04 17:47 | 32.71986 | -96.83140 | 12573 ft | 270 kts | 313° |
| 2026-05-04 17:48 | 32.73313 | -96.84646 | 12519 ft | 264 kts | 313° |
| 2026-05-04 17:48 | 32.74583 | -96.86085 | 12438 ft | 250 kts | 313° |
| 2026-05-04 17:48 | 32.75788 | -96.87451 | 12310 ft | 240 kts | 313° |
| 2026-05-04 17:48 | 32.76967 | -96.88792 | 12255 ft | 236 kts | 312° |
| 2026-05-04 17:49 | 32.78134 | -96.90123 | 12206 ft | 237 kts | 313° |
| 2026-05-04 17:49 | 32.79497 | -96.91228 | 11983 ft | 247 kts | 335° |
| 2026-05-04 17:49 | 32.81192 | -96.91541 | 11752 ft | 255 kts | 356° |
| 2026-05-04 17:49 | 32.82966 | -96.91490 | 11515 ft | 255 kts | 356° |
| 2026-05-04 17:50 | 32.84715 | -96.91464 | 11269 ft | 253 kts | 355° |
| 2026-05-04 17:50 | 32.86470 | -96.91450 | 11033 ft | 254 kts | 354° |
| 2026-05-04 17:50 | 32.88219 | -96.91440 | 10782 ft | 254 kts | 355° |
| 2026-05-04 17:50 | 32.89982 | -96.91423 | 10457 ft | 254 kts | 355° |
| 2026-05-04 17:51 | 32.91730 | -96.91394 | 10198 ft | 254 kts | 355° |
| 2026-05-04 17:51 | 32.93472 | -96.91380 | 9912 ft | 254 kts | 355° |
| 2026-05-04 17:51 | 32.95227 | -96.91357 | 9608 ft | 253 kts | 356° |
| 2026-05-04 17:51 | 32.96973 | -96.91341 | 9317 ft | 254 kts | 356° |
| 2026-05-04 17:52 | 32.98738 | -96.91336 | 9110 ft | 253 kts | 355° |
| 2026-05-04 17:52 | 33.00465 | -96.91313 | 8822 ft | 252 kts | 356° |
| 2026-05-04 17:52 | 33.02165 | -96.91307 | 8508 ft | 251 kts | 355° |
| 2026-05-04 17:52 | 33.03925 | -96.91295 | 8197 ft | 251 kts | 355° |
| 2026-05-04 17:53 | 33.05622 | -96.91293 | 7821 ft | 250 kts | 355° |
| 2026-05-04 17:53 | 33.07348 | -96.91291 | 7451 ft | 252 kts | 355° |
| 2026-05-04 17:53 | 33.09093 | -96.91289 | 7008 ft | 251 kts | 356° |
| 2026-05-04 17:53 | 33.10815 | -96.91295 | 6611 ft | 249 kts | 355° |
| 2026-05-04 17:54 | 33.12539 | -96.91296 | 6171 ft | 249 kts | 356° |
| 2026-05-04 17:54 | 33.14204 | -96.91306 | 6077 ft | 234 kts | 351° |
| 2026-05-04 17:54 | 33.15646 | -96.91846 | 5998 ft | 206 kts | 317° |
| 2026-05-04 17:54 | 33.16474 | -96.93042 | 5590 ft | 183 kts | 282° |
| 2026-05-04 17:55 | 33.16591 | -96.94517 | 4970 ft | 179 kts | 263° |
| 2026-05-04 17:55 | 33.16552 | -96.95998 | 4444 ft | 179 kts | 263° |
| 2026-05-04 17:55 | 33.16517 | -96.97453 | 3954 ft | 178 kts | 262° |
| 2026-05-04 17:55 | 33.16492 | -96.98919 | 3480 ft | 176 kts | 263° |
| 2026-05-04 17:56 | 33.16454 | -97.00342 | 3034 ft | 172 kts | 253° |
| 2026-05-04 17:56 | 33.15967 | -97.01532 | 2958 ft | 166 kts | 231° |
| 2026-05-04 17:56 | 33.15309 | -97.02638 | 2913 ft | 161 kts | 217° |
| 2026-05-04 17:56 | 33.14421 | -97.03437 | 2920 ft | 163 kts | 213° |
| 2026-05-04 17:57 | 33.13507 | -97.04218 | 2922 ft | 163 kts | 213° |
| 2026-05-04 17:57 | 33.12571 | -97.04945 | 2919 ft | 160 kts | 203° |
| 2026-05-04 17:57 | 33.11512 | -97.05305 | 2921 ft | 161 kts | 189° |
| 2026-05-04 17:57 | 33.10409 | -97.05382 | 2916 ft | 161 kts | 182° |
| 2026-05-04 17:58 | 33.09291 | -97.05371 | 2920 ft | 162 kts | 182° |
| 2026-05-04 17:58 | 33.08156 | -97.05380 | 2917 ft | 163 kts | 183° |
| 2026-05-04 17:58 | 33.07020 | -97.05384 | 2914 ft | 164 kts | 183° |
| 2026-05-04 17:58 | 33.05887 | -97.05390 | 2921 ft | 165 kts | 183° |
| 2026-05-04 17:59 | 33.04754 | -97.05395 | 2909 ft | 162 kts | 184° |
| 2026-05-04 17:59 | 33.03684 | -97.05402 | 2910 ft | 161 kts | 183° |
| 2026-05-04 17:59 | 33.01455 | -97.05413 | 2575 ft | 161 kts | 182° |
| 2026-05-04 18:00 | 33.00390 | -97.05418 | 2370 ft | 137 kts | 182° |
| 2026-05-04 18:00 | 32.99512 | -97.05424 | 2189 ft | 124 kts | 181° |
| 2026-05-04 18:00 | 32.98702 | -97.05427 | 2052 ft | 112 kts | 181° |
| 2026-05-04 18:00 | 32.97915 | -97.05432 | 1899 ft | 117 kts | 180° |
| 2026-05-04 18:01 | 32.97111 | -97.05435 | 1722 ft | 117 kts | 180° |
| 2026-05-04 18:01 | 32.96298 | -97.05441 | 1568 ft | 120 kts | 180° |
| 2026-05-04 18:01 | 32.95474 | -97.05444 | 1410 ft | 118 kts | 181° |
| 2026-05-04 18:02 | 32.93828 | -97.05455 | 1093 ft | 121 kts | 182° |
| 2026-05-04 18:02 | 32.92999 | -97.05455 | 951 ft | 120 kts | 181° |
| 2026-05-04 18:02 | 32.92175 | -97.05457 | 775 ft | 116 kts | 182° |
| 2026-05-04 18:02 | 32.91370 | -97.05465 | 648 ft | 116 kts | 181° |
| 2026-05-04 18:03 | 32.90678 | -97.05470 | 623 ft | 76 kts | 180° |
| 2026-05-04 18:03 | 32.90274 | -97.05476 | 618 ft | 47 kts | 181° |
| 2026-05-04 18:03 | 32.90045 | -97.05470 | 620 ft | 18 kts | 163° |
| 2026-05-04 18:03 | 32.89973 | -97.05428 | 624 ft | 9 kts | 149° |
| 2026-05-04 18:04 | 32.89925 | -97.05394 | 626 ft | 7 kts | 149° |
| 2026-05-04 18:04 | 32.89882 | -97.05363 | 626 ft | 8 kts | 149° |
| 2026-05-04 18:04 | 32.89766 | -97.05273 | 621 ft | 8 kts | 112° |
| 2026-05-04 18:05 | 32.89758 | -97.05202 | 618 ft | 11 kts | 90° |
| 2026-05-04 18:05 | 32.89757 | -97.05105 | 618 ft | 13 kts | 90° |
| 2026-05-04 18:05 | 32.89757 | -97.04993 | 618 ft | 14 kts | 89° |
| 2026-05-04 18:05 | 32.89760 | -97.04863 | 620 ft | 18 kts | 89° |
| 2026-05-04 18:06 | 32.89739 | -97.04741 | 602 ft | 2 kts | 188° |
| 2026-05-04 18:06 | 32.89728 | -97.04743 | 602 ft | 2 kts | 188° |
| 2026-05-04 18:06 | 32.89706 | -97.04747 | 602 ft | 3 kts | 188° |
| 2026-05-04 18:07 | 32.89689 | -97.04750 | 602 ft | 3 kts | 188° |
| 2026-05-04 18:07 | 32.89667 | -97.04754 | 603 ft | 5 kts | 188° |
| 2026-05-04 18:07 | 32.89611 | -97.04763 | 603 ft | 11 kts | 186° |
| 2026-05-04 18:07 | 32.89523 | -97.04766 | 602 ft | 15 kts | 180° |
| 2026-05-04 18:08 | 32.89436 | -97.04767 | 600 ft | 2 kts | 180° |
| 2026-05-04 18:08 | 32.89428 | -97.04767 | 600 ft | 2 kts | 177° |
| 2026-05-04 18:08 | 32.89408 | -97.04761 | 600 ft | 2 kts | 142° |
| 2026-05-04 18:08 | 32.89403 | -97.04755 | 600 ft | 1 kts | 110° |
| 2026-05-04 18:09 | 32.89400 | -97.04666 | 602 ft | 6 kts | 91° |
| 2026-05-04 18:09 | 32.89446 | -97.04582 | 603 ft | 9 kts | 38° |
| 2026-05-04 18:10 | 32.89491 | -97.04541 | 603 ft | 5 kts | 37° |
| 2026-05-04 18:10 | 32.89508 | -97.04526 | 603 ft | 0 kts | 38° |